Latest Coastal Weather Observations for Cape Otway

IDV60701

Issued at 6:45 pm EST Monday 21 April 2014 (issued every 10 minutes, with the page automatically refreshed every 10 minutes)

About coastal observations | Map of coastal stations | Coastal observations for VIC | Marine services | Other Formats
Station Details ID: 090015 Name: CAPE OTWAY LIGHTHOUSE Lat: -38.86 Lon: 143.51 Height: 82.0 m
Data from the previous 72 hours. | See also: Recent months at Cape Otway
Date/Time
EST
Temp

°C
Wind Pressure Rain
since 9am
mm
Weather Cloud Vis
km
Sea
Height
m
Swell
Dir
 
Speed
knots
Gust
knots
hPa Trend Height
m
Period
s
Dir
21/06:33pm 20.5 N 21 31 1009.4 - 2.2 - - - - - - -
21/06:30pm 20.4 N 21 28 1009.4 - 2.2 - - - - - - -
21/06:02pm 20.4 N 23 33 1009.3 - 2.2 - - - - - - -
21/06:01pm 20.4 N 23 33 1009.3 - 2.2 - - - - - - -
21/06:00pm 20.3 N 23 31 1009.2 - 2.2 - - - - - - -
21/05:33pm 19.9 N 18 29 1009.3 - 2.2 - - - - - - -
21/05:32pm 19.9 N 19 29 1009.3 - 2.2 - - - - - - -
21/05:30pm 19.9 N 17 25 1009.2 - 2.2 - - - - - - -
21/05:09pm 19.8 N 18 29 1009.4 - 2.2 - - - - - - -
21/05:00pm 19.6 N 17 24 1009.3 - 2.2 - - - - - - -
21/04:30pm 19.5 N 24 34 1008.8 - 2.2 - - - - - - -
21/04:06pm 18.9 N 21 31 1008.8 - 2.2 - - - - - - -
21/04:00pm 19.0 N 23 30 1008.8 - 2.2 - - - - - - -
21/03:30pm 17.9 N 23 38 1009.3 - 2.2 - - - - - - -
21/03:00pm 18.3 N 18 30 1010.0 F 2.2 Fine Mostly cloudy 20 2 3.0 10 S
21/02:55pm 18.1 N 16 30 1010.1 - 2.2 - - - - - - -
21/02:54pm 18.1 N 15 30 1010.1 - 2.2 - - - - - - -
21/02:30pm 17.4 N 14 22 1010.7 - 2.2 - - - - - - -
21/02:00pm 15.4 NE 7 9 1011.6 - 2.2 - - - - - - -
21/01:30pm 14.7 NE 7 9 1012.7 - 2.2 - - - - - - -
21/01:00pm 14.5 NE 5 7 1014.0 - 2.2 - - - - - - -
21/12:30pm 15.4 W 11 16 1015.7 - 1.2 - - - - - - -
21/12:00pm 17.0 N 3 7 1014.3 - 0.0 - - - - - - -
21/11:30am 17.1 N 10 16 1014.8 - 0.0 - - - - - - -
21/11:00am 16.6 N 7 15 1014.7 - 0.0 - - - - - - -
21/10:30am 16.3 N 6 10 1015.4 - 0.0 - - - - - - -
21/10:00am 15.7 NNW 5 9 1016.1 - 0.0 - - - - - - -
21/09:30am 15.3 N 10 14 1016.0 - 0.0 - - - - - - -
21/09:00am 14.6 N 9 14 1016.4 F 2.0 Distant precip. Mostly cloudy 20 2 3.0 10 S
21/08:30am 13.8 N 10 14 1016.6 - 2.0 - - - - - - -
21/08:00am 13.5 N 10 14 1016.8 - 2.0 - - - - - - -
21/07:30am 13.2 NNW 7 12 1016.3 - 2.0 - - - - - - -
21/07:00am 13.2 NNW 8 12 1016.1 - 2.0 - - - - - - -
21/06:30am 13.3 NNW 11 15 1016.4 - 2.0 - - - - - - -
21/06:00am 13.0 NNW 10 13 1016.3 - 2.0 - - - - - - -
21/05:30am 12.9 NNW 9 12 1016.2 - 2.0 - - - - - - -
21/05:00am 13.0 NNW 9 12 1015.9 - 2.0 - - - - - - -
21/04:30am 12.9 N 10 13 1015.7 - 2.0 - - - - - - -
21/04:00am 12.9 N 9 13 1015.4 - 2.0 - - - - - - -
21/03:30am 12.8 NNW 9 12 1015.7 - 2.0 - - - - - - -
21/03:00am 12.7 NNW 9 11 1015.7 - 2.0 - - - - - - -
21/02:30am 12.6 N 9 12 1016.1 - 2.0 - - - - - - -
21/02:00am 12.3 N 7 9 1016.3 - 2.0 - - - - - - -
21/01:30am 12.7 N 8 10 1016.3 - 2.0 - - - - - - -
21/01:00am 11.9 N 3 6 1016.4 - 2.0 - - - - - - -
21/12:30am 12.9 NNW 6 8 1016.5 - 2.0 - - - - - - -
21/12:00am 12.8 NNW 5 7 1016.2 - 2.0 - - - - - - -
 
Date/Time
EST
Temp

°C
Wind Pressure Rain
since 9am
mm
Weather Cloud Vis
km
Sea
Height
m
Swell
Dir
 
Speed
knots
Gust
knots
hPa Trend Height
m
Period
s
Dir
20/11:30pm 13.2 N 4 7 1016.5 - 2.0 - - - - - - -
20/11:00pm 13.3 N 6 8 1016.8 - 2.0 - - - - - - -
20/10:30pm 13.6 NNW 4 5 1017.1 - 1.6 - - - - - - -
20/10:00pm 13.7 NW 5 7 1017.1 - 0.8 - - - - - - -
20/09:30pm 14.2 NNW 6 8 1017.1 - 0.0 - - - - - - -
20/09:00pm 14.8 W 7 10 1016.9 - 0.0 - - - - - - -
20/08:30pm 14.7 WNW 6 9 1016.8 - 0.0 - - - - - - -
20/08:00pm 14.7 NNW 8 11 1016.8 - 0.0 - - - - - - -
20/07:30pm 14.1 NNW 7 9 1016.7 - 0.0 - - - - - - -
20/07:00pm 14.8 NW 7 11 1016.5 - 0.0 - - - - - - -
20/06:30pm 15.1 NW 8 12 1016.3 - 0.0 - - - - - - -
20/06:00pm 15.1 WNW 8 12 1016.0 - 0.0 - - - - - - -
20/05:30pm 15.5 WNW 11 18 1015.9 - 0.0 - - - - - - -
20/05:00pm 15.0 WNW 14 22 1015.5 - 0.0 - - - - - - -
20/04:30pm 16.0 WNW 12 18 1015.3 - 0.0 - - - - - - -
20/04:00pm 16.2 WNW 14 19 1015.2 - 0.0 - - - - - - -
20/03:30pm 16.7 WNW 15 21 1015.1 - 0.0 - - - - - - -
20/03:00pm 16.8 WNW 16 23 1014.9 R 0.0 Fine Mostly clear 20 2 3.0 10 SW
20/02:30pm 16.7 WNW 17 25 1014.9 - 0.0 - - - - - - -
20/02:06pm 16.4 WNW 17 27 1014.9 - 0.0 - - - - - - -
20/02:05pm 16.4 WNW 17 27 1014.9 - 0.0 - - - - - - -
20/02:00pm 16.6 WNW 17 25 1014.8 - 0.0 - - - - - - -
20/01:30pm 16.7 WNW 16 27 1015.0 - 0.0 - - - - - - -
20/01:25pm 16.7 WNW 17 27 1015.0 - 0.0 - - - - - - -
20/01:24pm 16.7 WNW 17 27 1015.0 - 0.0 - - - - - - -
20/01:00pm 16.6 WNW 18 25 1015.2 - 0.0 - - - - - - -
20/12:48pm 16.6 WNW 16 26 1015.4 - 0.0 - - - - - - -
20/12:47pm 16.6 WNW 16 26 1015.4 - 0.0 - - - - - - -
20/12:30pm 16.0 WNW 17 23 1015.5 - 0.0 - - - - - - -
20/12:00pm 16.4 WNW 13 19 1015.9 - 0.0 - - - - - - -
20/11:30am 15.7 WNW 15 24 1016.2 - 0.0 - - - - - - -
20/11:00am 15.8 NW 14 21 1016.3 - 0.0 - - - - - - -
20/10:30am 15.2 NW 14 23 1016.5 - 0.0 - - - - - - -
20/10:00am 14.9 NW 15 22 1016.4 - 0.0 - - - - - - -
20/09:30am 14.2 NW 13 20 1016.6 - 0.0 - - - - - - -
20/09:00am 13.3 NW 13 21 1016.6 F 0.0 Fine Mostly cloudy 20 2 2.0 10 SW
20/08:30am 13.4 NW 12 18 1016.5 - 0.0 - - - - - - -
20/08:00am 12.6 NW 11 16 1016.4 - 0.0 - - - - - - -
20/07:30am 12.5 NW 11 18 1016.1 - 0.0 - - - - - - -
20/07:00am 12.6 NW 12 17 1016.0 - 0.0 - - - - - - -
20/06:30am 12.6 NW 12 18 1015.9 - 0.0 - - - - - - -
20/06:00am 12.0 NW 10 16 1015.6 - 0.0 - - - - - - -
20/05:30am 11.8 NNW 9 15 1015.5 - 0.0 - - - - - - -
20/05:00am 11.7 NNW 8 12 1015.5 - 0.0 - - - - - - -
20/04:30am 11.7 NNW 9 14 1015.4 - 0.0 - - - - - - -
20/04:00am 11.7 NNW 8 13 1015.5 - 0.0 - - - - - - -
20/03:30am 11.6 NNW 9 13 1015.9 - 0.0 - - - - - - -
20/03:00am 11.2 NNW 7 11 1015.8 - 0.0 - - - - - - -
20/02:30am 11.2 NNW 8 11 1016.1 - 0.0 - - - - - - -
20/02:00am 11.2 NNW 8 11 1016.5 - 0.0 - - - - - - -
20/01:30am 10.6 NNW 8 10 1016.6 - 0.0 - - - - - - -
20/01:00am 10.2 N 9 13 1016.6 - 0.0 - - - - - - -
20/12:30am 10.4 N 8 10 1016.8 - 0.0 - - - - - - -
20/12:00am 11.0 N 8 11 1016.9 - 0.0 - - - - - - -
 
Date/Time
EST
Temp

°C
Wind Pressure Rain
since 9am
mm
Weather Cloud Vis
km
Sea
Height
m
Swell
Dir
 
Speed
knots
Gust
knots
hPa Trend Height
m
Period
s
Dir
19/11:30pm 11.4 NNW 8 11 1017.3 - 0.0 - - - - - - -
19/11:00pm 11.4 N 8 10 1017.6 - 0.0 - - - - - - -
19/10:30pm 11.5 NNW 7 11 1017.9 - 0.0 - - - - - - -
19/10:00pm 11.9 NNW 7 13 1018.1 - 0.0 - - - - - - -
19/09:30pm 11.5 N 8 10 1018.1 - 0.0 - - - - - - -
19/09:00pm 11.4 N 7 9 1018.1 - 0.0 - - - - - - -
19/08:30pm 11.9 N 6 8 1018.4 - 0.0 - - - - - - -
19/08:00pm 12.3 NNW 6 10 1018.4 - 0.0 - - - - - - -
19/07:30pm 13.2 WNW 7 10 1018.6 - 0.0 - - - - - - -
19/07:00pm 13.3 W 7 11 1018.6 - 0.0 - - - - - - -
19/06:30pm 12.9 WNW 9 13 1018.5 - 0.0 - - - - - - -
19/06:00pm 13.3 WNW 8 12 1018.3 - 0.0 - - - - - - -
19/05:30pm 13.4 W 7 11 1018.4 - 0.0 - - - - - - -
19/05:00pm 13.9 W 6 9 1018.4 - 0.0 - - - - - - -
19/04:30pm 13.9 W 7 10 1018.6 - 0.0 - - - - - - -
19/04:00pm 13.9 W 11 15 1018.8 - 0.0 - - - - - - -
19/03:30pm 14.7 W 9 13 1018.9 - 0.0 - - - - - - -
19/03:00pm 13.6 W 10 14 1019.0 F 0.0 Fine Mostly cloudy 20 2 4.0 10 SW
19/02:30pm 13.8 W 12 17 1019.0 - 0.0 - - - - - - -
19/02:00pm 14.5 W 12 17 1019.1 - 0.0 - - - - - - -
19/01:30pm 14.5 W 11 17 1019.3 - 0.0 - - - - - - -
19/01:00pm 14.1 WSW 13 19 1019.7 - 0.0 - - - - - - -
19/12:30pm 14.8 WSW 13 16 1020.1 - 0.0 - - - - - - -
19/12:00pm 13.9 WSW 15 18 1020.4 - 0.0 - - - - - - -
19/11:30am 13.3 SW 17 22 1020.7 - 0.0 - - - - - - -
19/11:00am 14.1 W 9 15 1020.7 - 0.0 - - - - - - -
19/10:30am 12.4 W 9 13 1021.1 - 0.0 - - - - - - -
19/10:00am 13.1 WSW 15 19 1020.8 - 0.0 - - - - - - -
19/09:30am 13.4 SSW 13 19 1020.8 - 0.0 - - - - - - -
19/09:00am 13.4 WSW 15 21 1020.6 F 0.4 Distant precip. Mostly cloudy 20 2 4.0 10 SW
19/08:30am 12.5 SW 8 15 1020.6 - 0.4 - - - - - - -
19/08:00am 13.3 WSW 15 20 1020.3 - 0.4 - - - - - - -
19/07:30am 13.2 WSW 15 21 1020.0 - 0.4 - - - - - - -
19/07:00am 13.5 WSW 14 19 1019.7 - 0.4 - - - - - - -
19/06:30am 13.2 WSW 13 18 1019.6 - 0.4 - - - - - - -
19/06:00am 13.1 WSW 11 17 1019.5 - 0.4 - - - - - - -
19/05:30am 13.1 SW 13 18 1019.4 - 0.4 - - - - - - -
19/05:00am 13.1 WSW 14 19 1019.3 - 0.4 - - - - - - -
19/04:30am 13.3 WSW 17 25 1019.3 - 0.4 - - - - - - -
19/04:00am 13.3 SW 18 24 1019.3 - 0.4 - - - - - - -
19/03:30am 13.3 SW 17 22 1019.5 - 0.4 - - - - - - -
19/03:00am 13.0 SSW 17 23 1019.5 - 0.4 - - - - - - -
19/02:30am 13.2 SSW 19 23 1019.8 - 0.4 - - - - - - -
19/02:00am 13.4 SW 15 22 1020.0 - 0.4 - - - - - - -
19/01:30am 13.6 SW 17 24 1020.0 - 0.4 - - - - - - -
19/01:00am 12.9 WSW 15 23 1020.2 - 0.4 - - - - - - -
19/12:30am 13.3 SSW 15 23 1020.1 - 0.4 - - - - - - -
19/12:00am 13.7 WSW 17 23 1020.0 - 0.4 - - - - - - -
 
Date/Time
EST
Temp

°C
Wind Pressure Rain
since 9am
mm
Weather Cloud Vis
km
Sea
Height
m
Swell
Dir
 
Speed
knots
Gust
knots
hPa Trend Height
m
Period
s
Dir
18/11:30pm 13.6 WSW 14 27 1020.0 - 0.4 - - - - - - -
18/11:00pm 13.8 SW 19 24 1020.3 - 0.4 - - - - - - -
18/10:30pm 13.7 SW 19 25 1020.4 - 0.4 - - - - - - -
18/10:00pm 13.8 SW 19 26 1020.4 - 0.4 - - - - - - -
18/09:30pm 13.9 WSW 19 25 1020.4 - 0.4 - - - - - - -
18/09:00pm 13.9 SW 20 30 1019.9 - 0.4 - - - - - - -
18/08:51pm 14.0 SW 20 30 1020.0 - 0.4 - - - - - - -
18/08:50pm 14.0 SW 20 30 1020.0 - 0.4 - - - - - - -
18/08:30pm 13.6 SW 19 28 1019.9 - 0.4 - - - - - - -
18/08:20pm 13.8 SW 18 28 1019.8 - 0.4 - - - - - - -
18/08:19pm 13.8 SW 18 28 1019.8 - 0.4 - - - - - - -
18/08:00pm 13.8 SW 21 27 1019.8 - 0.4 - - - - - - -
18/07:30pm 13.9 SW 22 29 1019.6 - 0.4 - - - - - - -
18/07:00pm 14.1 SW 23 28 1019.4 - 0.4 - - - - - - -

Other Formats:

Comma delimited format used in spreadsheet applications
http://www.bom.gov.au/fwo/IDV60701/IDV60701.94842.axf

JavaScript Object Notation format (JSON) in row-major order
http://www.bom.gov.au/fwo/IDV60701/IDV60701.94842.json